Moon Township, Pennsylvania
Current Conditions -  °F | °C
As of 10:51 AM on Sunday 21 Dec 2014 (Local Time) from KPIT Reporting Station
Overcast Overcast  
Wind Chill: 30°   Ceiling: 2600
Heat Index: 30°   Visibility: 10mi
Dew Point: 20°   Wind: 0mph
Humidity: 66%   Direction: NA
Pressure: 30.32"   Gusts: NA
Location:  40.5042°N, 80.1934°W
Report Text: KPIT 211551Z 00000KT 10SM OVC026 M01/M07 A3032 RMK AO2 SLP289 T10111067
Loading
Personal Weather Stations






























Interactive Weather Map New forecast layout! Learn more

10-Day Weather Forecast

Advertisements
Track Severe Weather on mobile